sensor_id;sensor_type;location;lat;lon;timestamp;P1;durP1;ratioP1;P2;durP2;ratioP2
8048;SDS011;20935;42.660;23.342;2023-02-12T00:00:17;12.77;;;8.37;;
8048;SDS011;20935;42.660;23.342;2023-02-12T00:03:03;9.17;;;8.20;;
8048;SDS011;20935;42.660;23.342;2023-02-12T00:05:50;9.90;;;6.80;;
8048;SDS011;20935;42.660;23.342;2023-02-12T00:08:39;13.00;;;9.67;;
8048;SDS011;20935;42.660;23.342;2023-02-12T00:11:25;10.97;;;8.17;;
8048;SDS011;20935;42.660;23.342;2023-02-12T00:14:12;15.87;;;9.53;;
8048;SDS011;20935;42.660;23.342;2023-02-12T00:16:57;11.90;;;8.33;;
8048;SDS011;20935;42.660;23.342;2023-02-12T00:19:42;11.07;;;8.20;;
8048;SDS011;20935;42.660;23.342;2023-02-12T00:22:29;11.40;;;8.87;;
8048;SDS011;20935;42.660;23.342;2023-02-12T00:25:15;11.60;;;8.20;;
8048;SDS011;20935;42.660;23.342;2023-02-12T00:28:01;12.60;;;8.83;;
8048;SDS011;20935;42.660;23.342;2023-02-12T00:30:47;9.20;;;7.10;;
8048;SDS011;20935;42.660;23.342;2023-02-12T00:33:34;8.27;;;6.63;;
8048;SDS011;20935;42.660;23.342;2023-02-12T00:36:20;9.47;;;7.13;;
8048;SDS011;20935;42.660;23.342;2023-02-12T00:39:08;10.47;;;8.00;;
8048;SDS011;20935;42.660;23.342;2023-02-12T00:41:54;11.80;;;8.63;;
8048;SDS011;20935;42.660;23.342;2023-02-12T00:44:39;10.23;;;7.43;;
8048;SDS011;20935;42.660;23.342;2023-02-12T00:47:25;10.90;;;7.90;;
8048;SDS011;20935;42.660;23.342;2023-02-12T00:50:10;12.90;;;8.93;;
8048;SDS011;20935;42.660;23.342;2023-02-12T00:52:56;11.93;;;8.43;;
8048;SDS011;20935;42.660;23.342;2023-02-12T00:55:43;9.27;;;7.10;;
8048;SDS011;20935;42.660;23.342;2023-02-12T00:58:28;13.30;;;8.77;;
8048;SDS011;20935;42.660;23.342;2023-02-12T01:01:14;7.20;;;5.27;;
8048;SDS011;20935;42.660;23.342;2023-02-12T01:03:59;9.83;;;7.63;;
8048;SDS011;20935;42.660;23.342;2023-02-12T01:06:45;10.27;;;7.50;;
8048;SDS011;20935;42.660;23.342;2023-02-12T01:09:30;11.67;;;8.23;;
8048;SDS011;20935;42.660;23.342;2023-02-12T01:12:17;10.17;;;7.83;;
8048;SDS011;20935;42.660;23.342;2023-02-12T01:15:02;14.30;;;9.77;;
8048;SDS011;20935;42.660;23.342;2023-02-12T01:17:50;10.40;;;8.00;;
8048;SDS011;20935;42.660;23.342;2023-02-12T01:20:36;10.50;;;7.40;;
8048;SDS011;20935;42.660;23.342;2023-02-12T01:23:23;12.60;;;7.80;;
8048;SDS011;20935;42.660;23.342;2023-02-12T01:26:09;10.47;;;8.33;;
8048;SDS011;20935;42.660;23.342;2023-02-12T01:28:58;10.37;;;7.37;;
8048;SDS011;20935;42.660;23.342;2023-02-12T01:31:46;10.10;;;7.97;;
8048;SDS011;20935;42.660;23.342;2023-02-12T01:34:31;13.00;;;8.60;;
8048;SDS011;20935;42.660;23.342;2023-02-12T01:37:17;12.43;;;8.23;;
8048;SDS011;20935;42.660;23.342;2023-02-12T01:40:03;15.70;;;9.13;;
8048;SDS011;20935;42.660;23.342;2023-02-12T01:42:49;13.40;;;8.87;;
8048;SDS011;20935;42.660;23.342;2023-02-12T01:45:46;8.97;;;7.10;;
8048;SDS011;20935;42.660;23.342;2023-02-12T01:48:36;15.03;;;9.17;;
8048;SDS011;20935;42.660;23.342;2023-02-12T01:51:25;11.63;;;8.60;;
8048;SDS011;20935;42.660;23.342;2023-02-12T01:54:13;12.83;;;10.63;;
8048;SDS011;20935;42.660;23.342;2023-02-12T01:57:01;13.30;;;9.17;;
8048;SDS011;20935;42.660;23.342;2023-02-12T01:59:49;11.77;;;9.43;;
8048;SDS011;20935;42.660;23.342;2023-02-12T02:02:41;11.13;;;8.30;;
8048;SDS011;20935;42.660;23.342;2023-02-12T02:05:30;11.60;;;8.73;;
8048;SDS011;20935;42.660;23.342;2023-02-12T02:08:23;11.33;;;8.10;;
8048;SDS011;20935;42.660;23.342;2023-02-12T02:11:09;14.07;;;11.33;;
8048;SDS011;20935;42.660;23.342;2023-02-12T02:14:08;12.97;;;9.10;;
8048;SDS011;20935;42.660;23.342;2023-02-12T02:17:29;11.90;;;8.23;;
8048;SDS011;20935;42.660;23.342;2023-02-12T02:24:00;12.43;;;8.30;;
8048;SDS011;20935;42.660;23.342;2023-02-12T02:33:25;12.33;;;8.83;;
8048;SDS011;20935;42.660;23.342;2023-02-12T02:36:22;14.77;;;10.33;;
8048;SDS011;20935;42.660;23.342;2023-02-12T02:39:14;8.47;;;6.57;;
8048;SDS011;20935;42.660;23.342;2023-02-12T02:42:07;15.73;;;8.77;;
8048;SDS011;20935;42.660;23.342;2023-02-12T02:45:01;15.60;;;10.73;;
8048;SDS011;20935;42.660;23.342;2023-02-12T02:47:54;13.47;;;10.17;;
8048;SDS011;20935;42.660;23.342;2023-02-12T02:50:45;17.03;;;11.43;;
8048;SDS011;20935;42.660;23.342;2023-02-12T02:53:36;15.40;;;10.83;;
8048;SDS011;20935;42.660;23.342;2023-02-12T02:56:28;14.23;;;9.77;;
8048;SDS011;20935;42.660;23.342;2023-02-12T02:59:16;16.23;;;8.60;;
8048;SDS011;20935;42.660;23.342;2023-02-12T03:02:06;12.87;;;9.60;;
8048;SDS011;20935;42.660;23.342;2023-02-12T03:05:00;14.57;;;11.23;;
8048;SDS011;20935;42.660;23.342;2023-02-12T03:07:48;17.80;;;11.03;;
8048;SDS011;20935;42.660;23.342;2023-02-12T03:10:37;13.40;;;10.70;;
8048;SDS011;20935;42.660;23.342;2023-02-12T03:13:27;12.60;;;8.70;;
8048;SDS011;20935;42.660;23.342;2023-02-12T03:16:20;9.07;;;7.53;;
8048;SDS011;20935;42.660;23.342;2023-02-12T03:19:13;14.77;;;10.43;;
8048;SDS011;20935;42.660;23.342;2023-02-12T03:22:05;13.17;;;10.00;;
8048;SDS011;20935;42.660;23.342;2023-02-12T03:24:55;12.60;;;9.27;;
8048;SDS011;20935;42.660;23.342;2023-02-12T03:27:43;15.10;;;11.83;;
8048;SDS011;20935;42.660;23.342;2023-02-12T03:30:35;15.13;;;9.43;;
8048;SDS011;20935;42.660;23.342;2023-02-12T03:33:31;16.60;;;11.20;;
8048;SDS011;20935;42.660;23.342;2023-02-12T03:36:27;15.57;;;10.53;;
8048;SDS011;20935;42.660;23.342;2023-02-12T03:39:23;20.27;;;13.43;;
8048;SDS011;20935;42.660;23.342;2023-02-12T03:42:15;19.87;;;13.83;;
8048;SDS011;20935;42.660;23.342;2023-02-12T03:45:09;19.43;;;12.43;;
8048;SDS011;20935;42.660;23.342;2023-02-12T03:48:05;18.27;;;12.97;;
8048;SDS011;20935;42.660;23.342;2023-02-12T03:50:55;16.33;;;11.53;;
8048;SDS011;20935;42.660;23.342;2023-02-12T03:53:47;15.70;;;12.10;;
8048;SDS011;20935;42.660;23.342;2023-02-12T03:56:40;15.30;;;10.40;;
8048;SDS011;20935;42.660;23.342;2023-02-12T03:59:28;14.10;;;10.20;;
8048;SDS011;20935;42.660;23.342;2023-02-12T04:02:14;17.93;;;13.23;;
8048;SDS011;20935;42.660;23.342;2023-02-12T04:05:03;24.33;;;13.30;;
8048;SDS011;20935;42.660;23.342;2023-02-12T04:07:49;20.97;;;14.57;;
8048;SDS011;20935;42.660;23.342;2023-02-12T04:10:41;18.27;;;12.90;;
8048;SDS011;20935;42.660;23.342;2023-02-12T04:13:39;15.60;;;11.47;;
8048;SDS011;20935;42.660;23.342;2023-02-12T04:16:32;18.47;;;12.93;;
8048;SDS011;20935;42.660;23.342;2023-02-12T04:19:27;19.60;;;14.57;;
8048;SDS011;20935;42.660;23.342;2023-02-12T04:22:20;20.27;;;13.80;;
8048;SDS011;20935;42.660;23.342;2023-02-12T04:25:20;16.67;;;12.87;;
8048;SDS011;20935;42.660;23.342;2023-02-12T04:28:13;19.23;;;14.33;;
8048;SDS011;20935;42.660;23.342;2023-02-12T04:31:13;21.33;;;14.27;;
8048;SDS011;20935;42.660;23.342;2023-02-12T04:34:07;20.03;;;14.83;;
8048;SDS011;20935;42.660;23.342;2023-02-12T04:36:58;17.63;;;14.03;;
8048;SDS011;20935;42.660;23.342;2023-02-12T04:39:48;21.00;;;14.60;;
8048;SDS011;20935;42.660;23.342;2023-02-12T04:42:39;22.60;;;15.03;;
8048;SDS011;20935;42.660;23.342;2023-02-12T04:45:27;18.10;;;13.87;;
8048;SDS011;20935;42.660;23.342;2023-02-12T04:48:15;20.37;;;13.13;;
8048;SDS011;20935;42.660;23.342;2023-02-12T04:51:01;14.80;;;10.47;;
8048;SDS011;20935;42.660;23.342;2023-02-12T04:53:46;17.67;;;12.60;;
8048;SDS011;20935;42.660;23.342;2023-02-12T04:56:32;19.63;;;13.23;;
8048;SDS011;20935;42.660;23.342;2023-02-12T04:59:20;22.33;;;12.87;;
8048;SDS011;20935;42.660;23.342;2023-02-12T05:02:05;12.77;;;8.93;;
8048;SDS011;20935;42.660;23.342;2023-02-12T05:04:52;18.77;;;13.57;;
8048;SDS011;20935;42.660;23.342;2023-02-12T05:07:37;18.73;;;13.03;;
8048;SDS011;20935;42.660;23.342;2023-02-12T05:10:23;17.77;;;11.53;;
8048;SDS011;20935;42.660;23.342;2023-02-12T05:13:08;18.23;;;12.43;;
8048;SDS011;20935;42.660;23.342;2023-02-12T05:15:54;20.40;;;13.03;;
8048;SDS011;20935;42.660;23.342;2023-02-12T05:18:40;19.47;;;12.67;;
8048;SDS011;20935;42.660;23.342;2023-02-12T05:21:27;16.53;;;11.33;;
8048;SDS011;20935;42.660;23.342;2023-02-12T05:24:12;14.17;;;10.10;;
8048;SDS011;20935;42.660;23.342;2023-02-12T05:26:57;16.37;;;10.50;;
8048;SDS011;20935;42.660;23.342;2023-02-12T05:29:43;16.53;;;11.17;;
8048;SDS011;20935;42.660;23.342;2023-02-12T05:32:28;14.50;;;11.17;;
8048;SDS011;20935;42.660;23.342;2023-02-12T05:35:14;17.93;;;11.13;;
8048;SDS011;20935;42.660;23.342;2023-02-12T05:38:01;14.03;;;9.50;;
8048;SDS011;20935;42.660;23.342;2023-02-12T05:40:46;17.23;;;10.17;;
8048;SDS011;20935;42.660;23.342;2023-02-12T05:43:32;12.87;;;9.80;;
8048;SDS011;20935;42.660;23.342;2023-02-12T05:46:20;15.80;;;11.20;;
8048;SDS011;20935;42.660;23.342;2023-02-12T05:49:06;14.20;;;10.73;;
8048;SDS011;20935;42.660;23.342;2023-02-12T05:51:52;21.13;;;13.10;;
8048;SDS011;20935;42.660;23.342;2023-02-12T05:54:39;20.77;;;12.23;;
8048;SDS011;20935;42.660;23.342;2023-02-12T05:57:24;17.97;;;12.63;;
8048;SDS011;20935;42.660;23.342;2023-02-12T06:00:10;12.23;;;8.60;;
8048;SDS011;20935;42.660;23.342;2023-02-12T06:02:56;15.97;;;12.10;;
8048;SDS011;20935;42.660;23.342;2023-02-12T06:05:42;12.90;;;10.03;;
8048;SDS011;20935;42.660;23.342;2023-02-12T06:08:28;17.47;;;11.77;;
8048;SDS011;20935;42.660;23.342;2023-02-12T06:11:15;14.83;;;11.07;;
8048;SDS011;20935;42.660;23.342;2023-02-12T06:14:02;14.77;;;10.23;;
8048;SDS011;20935;42.660;23.342;2023-02-12T06:16:51;18.17;;;12.73;;
8048;SDS011;20935;42.660;23.342;2023-02-12T06:19:36;13.97;;;10.33;;
8048;SDS011;20935;42.660;23.342;2023-02-12T06:22:22;16.93;;;12.30;;
8048;SDS011;20935;42.660;23.342;2023-02-12T06:25:07;15.53;;;9.60;;
8048;SDS011;20935;42.660;23.342;2023-02-12T06:27:54;14.40;;;10.63;;
8048;SDS011;20935;42.660;23.342;2023-02-12T06:30:39;14.03;;;10.87;;
8048;SDS011;20935;42.660;23.342;2023-02-12T06:33:25;10.60;;;9.17;;
8048;SDS011;20935;42.660;23.342;2023-02-12T06:36:11;16.03;;;12.07;;
8048;SDS011;20935;42.660;23.342;2023-02-12T06:38:57;14.77;;;10.50;;
8048;SDS011;20935;42.660;23.342;2023-02-12T06:41:44;17.37;;;11.40;;
8048;SDS011;20935;42.660;23.342;2023-02-12T06:44:31;17.43;;;11.17;;
8048;SDS011;20935;42.660;23.342;2023-02-12T06:47:16;16.57;;;11.07;;
8048;SDS011;20935;42.660;23.342;2023-02-12T06:50:05;12.90;;;9.03;;
8048;SDS011;20935;42.660;23.342;2023-02-12T06:52:51;15.47;;;9.87;;
8048;SDS011;20935;42.660;23.342;2023-02-12T06:55:36;14.43;;;10.43;;
8048;SDS011;20935;42.660;23.342;2023-02-12T06:58:22;12.47;;;9.27;;
8048;SDS011;20935;42.660;23.342;2023-02-12T07:01:09;14.53;;;10.23;;
8048;SDS011;20935;42.660;23.342;2023-02-12T07:03:57;14.53;;;10.33;;
8048;SDS011;20935;42.660;23.342;2023-02-12T07:06:44;16.40;;;11.07;;
8048;SDS011;20935;42.660;23.342;2023-02-12T07:09:30;9.73;;;7.97;;
8048;SDS011;20935;42.660;23.342;2023-02-12T07:12:15;15.90;;;11.33;;
8048;SDS011;20935;42.660;23.342;2023-02-12T07:15:00;13.00;;;9.37;;
8048;SDS011;20935;42.660;23.342;2023-02-12T07:17:47;16.90;;;11.27;;
8048;SDS011;20935;42.660;23.342;2023-02-12T07:20:33;15.23;;;11.07;;
8048;SDS011;20935;42.660;23.342;2023-02-12T07:23:18;14.17;;;11.77;;
8048;SDS011;20935;42.660;23.342;2023-02-12T07:26:04;15.10;;;11.43;;
8048;SDS011;20935;42.660;23.342;2023-02-12T07:28:51;15.07;;;11.93;;
8048;SDS011;20935;42.660;23.342;2023-02-12T07:31:37;12.07;;;10.23;;
8048;SDS011;20935;42.660;23.342;2023-02-12T07:34:24;15.80;;;10.37;;
8048;SDS011;20935;42.660;23.342;2023-02-12T07:37:09;14.00;;;9.90;;
8048;SDS011;20935;42.660;23.342;2023-02-12T07:39:55;16.17;;;11.10;;
8048;SDS011;20935;42.660;23.342;2023-02-12T07:42:40;18.40;;;14.57;;
8048;SDS011;20935;42.660;23.342;2023-02-12T07:45:26;18.83;;;13.47;;
8048;SDS011;20935;42.660;23.342;2023-02-12T07:48:12;15.13;;;11.00;;
8048;SDS011;20935;42.660;23.342;2023-02-12T07:51:01;15.63;;;11.97;;
8048;SDS011;20935;42.660;23.342;2023-02-12T07:53:47;26.27;;;15.60;;
8048;SDS011;20935;42.660;23.342;2023-02-12T07:56:34;20.83;;;14.13;;
8048;SDS011;20935;42.660;23.342;2023-02-12T07:59:21;16.17;;;12.30;;
8048;SDS011;20935;42.660;23.342;2023-02-12T08:02:08;21.23;;;15.07;;
8048;SDS011;20935;42.660;23.342;2023-02-12T08:04:54;14.40;;;11.77;;
8048;SDS011;20935;42.660;23.342;2023-02-12T08:07:41;14.77;;;10.30;;
8048;SDS011;20935;42.660;23.342;2023-02-12T08:10:26;16.13;;;11.27;;
8048;SDS011;20935;42.660;23.342;2023-02-12T08:13:11;21.63;;;14.17;;
8048;SDS011;20935;42.660;23.342;2023-02-12T08:16:00;21.67;;;13.90;;
8048;SDS011;20935;42.660;23.342;2023-02-12T08:18:45;18.47;;;14.70;;
8048;SDS011;20935;42.660;23.342;2023-02-12T08:21:31;20.83;;;15.80;;
8048;SDS011;20935;42.660;23.342;2023-02-12T08:24:18;19.20;;;15.13;;
8048;SDS011;20935;42.660;23.342;2023-02-12T08:27:04;20.67;;;14.33;;
8048;SDS011;20935;42.660;23.342;2023-02-12T08:29:49;21.60;;;15.03;;
8048;SDS011;20935;42.660;23.342;2023-02-12T08:32:35;21.97;;;15.27;;
8048;SDS011;20935;42.660;23.342;2023-02-12T08:35:21;23.03;;;16.53;;
8048;SDS011;20935;42.660;23.342;2023-02-12T08:38:06;19.87;;;15.03;;
8048;SDS011;20935;42.660;23.342;2023-02-12T08:40:53;17.97;;;13.57;;
8048;SDS011;20935;42.660;23.342;2023-02-12T08:43:39;21.63;;;15.17;;
8048;SDS011;20935;42.660;23.342;2023-02-12T08:46:26;19.70;;;14.23;;
8048;SDS011;20935;42.660;23.342;2023-02-12T08:49:12;17.47;;;13.57;;
8048;SDS011;20935;42.660;23.342;2023-02-12T08:51:59;20.63;;;16.60;;
8048;SDS011;20935;42.660;23.342;2023-02-12T08:54:45;21.47;;;15.40;;
8048;SDS011;20935;42.660;23.342;2023-02-12T08:57:32;17.50;;;13.33;;
8048;SDS011;20935;42.660;23.342;2023-02-12T09:00:18;23.17;;;15.70;;
8048;SDS011;20935;42.660;23.342;2023-02-12T09:03:04;18.57;;;14.00;;
8048;SDS011;20935;42.660;23.342;2023-02-12T09:05:49;18.47;;;14.67;;
8048;SDS011;20935;42.660;23.342;2023-02-12T09:08:37;17.70;;;14.27;;
8048;SDS011;20935;42.660;23.342;2023-02-12T09:11:24;22.43;;;17.07;;
8048;SDS011;20935;42.660;23.342;2023-02-12T09:14:15;22.10;;;15.47;;
8048;SDS011;20935;42.660;23.342;2023-02-12T09:17:01;23.23;;;16.43;;
8048;SDS011;20935;42.660;23.342;2023-02-12T09:19:48;21.97;;;17.60;;
8048;SDS011;20935;42.660;23.342;2023-02-12T09:22:33;21.97;;;15.03;;
8048;SDS011;20935;42.660;23.342;2023-02-12T09:25:20;19.70;;;14.87;;
8048;SDS011;20935;42.660;23.342;2023-02-12T09:28:06;23.23;;;16.17;;
8048;SDS011;20935;42.660;23.342;2023-02-12T09:30:53;23.77;;;17.10;;
8048;SDS011;20935;42.660;23.342;2023-02-12T09:33:39;20.53;;;16.07;;
8048;SDS011;20935;42.660;23.342;2023-02-12T09:36:26;20.60;;;15.70;;
8048;SDS011;20935;42.660;23.342;2023-02-12T09:39:12;23.13;;;17.47;;
8048;SDS011;20935;42.660;23.342;2023-02-12T09:42:00;22.57;;;16.33;;
8048;SDS011;20935;42.660;23.342;2023-02-12T09:45:02;15.67;;;12.17;;
8048;SDS011;20935;42.660;23.342;2023-02-12T09:48:04;19.20;;;12.50;;
8048;SDS011;20935;42.660;23.342;2023-02-12T09:50:59;21.07;;;15.00;;
8048;SDS011;20935;42.660;23.342;2023-02-12T09:53:49;21.40;;;16.27;;
8048;SDS011;20935;42.660;23.342;2023-02-12T09:56:46;23.67;;;17.00;;
8048;SDS011;20935;42.660;23.342;2023-02-12T09:59:38;22.67;;;16.93;;
8048;SDS011;20935;42.660;23.342;2023-02-12T10:02:27;26.90;;;18.67;;
8048;SDS011;20935;42.660;23.342;2023-02-12T10:05:15;18.37;;;13.90;;
8048;SDS011;20935;42.660;23.342;2023-02-12T10:08:16;22.23;;;16.13;;
8048;SDS011;20935;42.660;23.342;2023-02-12T10:11:15;24.63;;;18.20;;
8048;SDS011;20935;42.660;23.342;2023-02-12T10:14:17;24.07;;;15.30;;
8048;SDS011;20935;42.660;23.342;2023-02-12T10:17:15;18.47;;;12.17;;
8048;SDS011;20935;42.660;23.342;2023-02-12T10:20:26;22.10;;;15.83;;
8048;SDS011;20935;42.660;23.342;2023-02-12T10:23:38;27.53;;;19.00;;
8048;SDS011;20935;42.660;23.342;2023-02-12T10:26:34;24.80;;;16.23;;
8048;SDS011;20935;42.660;23.342;2023-02-12T10:29:23;17.50;;;13.20;;
8048;SDS011;20935;42.660;23.342;2023-02-12T10:32:12;20.37;;;14.90;;
8048;SDS011;20935;42.660;23.342;2023-02-12T10:35:11;22.53;;;16.40;;
8048;SDS011;20935;42.660;23.342;2023-02-12T10:37:59;27.40;;;19.13;;
8048;SDS011;20935;42.660;23.342;2023-02-12T10:40:48;21.40;;;14.27;;
8048;SDS011;20935;42.660;23.342;2023-02-12T10:43:34;25.07;;;18.47;;
8048;SDS011;20935;42.660;23.342;2023-02-12T10:46:20;22.40;;;16.73;;
8048;SDS011;20935;42.660;23.342;2023-02-12T10:49:05;24.60;;;16.03;;
8048;SDS011;20935;42.660;23.342;2023-02-12T10:51:56;24.47;;;16.77;;
8048;SDS011;20935;42.660;23.342;2023-02-12T10:54:47;31.07;;;19.53;;
8048;SDS011;20935;42.660;23.342;2023-02-12T10:57:33;28.40;;;18.57;;
8048;SDS011;20935;42.660;23.342;2023-02-12T11:00:24;28.63;;;19.70;;
8048;SDS011;20935;42.660;23.342;2023-02-12T11:03:18;28.37;;;20.50;;
8048;SDS011;20935;42.660;23.342;2023-02-12T11:06:12;29.63;;;17.67;;
8048;SDS011;20935;42.660;23.342;2023-02-12T11:08:59;25.13;;;17.70;;
8048;SDS011;20935;42.660;23.342;2023-02-12T11:11:46;27.40;;;19.13;;
8048;SDS011;20935;42.660;23.342;2023-02-12T11:14:31;28.03;;;19.93;;
8048;SDS011;20935;42.660;23.342;2023-02-12T11:17:18;27.20;;;19.30;;
8048;SDS011;20935;42.660;23.342;2023-02-12T11:20:19;26.33;;;19.60;;
8048;SDS011;20935;42.660;23.342;2023-02-12T11:23:21;29.80;;;19.30;;
8048;SDS011;20935;42.660;23.342;2023-02-12T11:26:21;29.47;;;19.30;;
8048;SDS011;20935;42.660;23.342;2023-02-12T11:29:17;27.87;;;20.00;;
8048;SDS011;20935;42.660;23.342;2023-02-12T11:32:05;27.13;;;18.27;;
8048;SDS011;20935;42.660;23.342;2023-02-12T11:35:03;28.43;;;19.07;;
8048;SDS011;20935;42.660;23.342;2023-02-12T11:37:50;27.63;;;19.67;;
8048;SDS011;20935;42.660;23.342;2023-02-12T11:40:44;28.57;;;19.03;;
8048;SDS011;20935;42.660;23.342;2023-02-12T11:43:30;20.93;;;14.70;;
8048;SDS011;20935;42.660;23.342;2023-02-12T11:46:21;26.33;;;17.17;;
8048;SDS011;20935;42.660;23.342;2023-02-12T11:49:12;25.30;;;18.63;;
8048;SDS011;20935;42.660;23.342;2023-02-12T11:52:04;25.37;;;18.23;;
8048;SDS011;20935;42.660;23.342;2023-02-12T11:54:51;27.83;;;19.40;;
8048;SDS011;20935;42.660;23.342;2023-02-12T11:57:42;28.87;;;18.50;;
8048;SDS011;20935;42.660;23.342;2023-02-12T12:00:31;24.23;;;16.60;;
8048;SDS011;20935;42.660;23.342;2023-02-12T12:03:24;26.77;;;18.43;;
8048;SDS011;20935;42.660;23.342;2023-02-12T12:06:25;27.20;;;18.33;;
8048;SDS011;20935;42.660;23.342;2023-02-12T12:09:16;28.43;;;20.87;;
8048;SDS011;20935;42.660;23.342;2023-02-12T12:12:09;28.60;;;18.57;;
8048;SDS011;20935;42.660;23.342;2023-02-12T12:15:00;27.47;;;19.27;;
8048;SDS011;20935;42.660;23.342;2023-02-12T12:18:08;26.40;;;18.90;;
8048;SDS011;20935;42.660;23.342;2023-02-12T12:21:25;29.67;;;19.97;;
8048;SDS011;20935;42.660;23.342;2023-02-12T12:24:16;29.63;;;22.70;;
8048;SDS011;20935;42.660;23.342;2023-02-12T12:27:07;28.33;;;20.27;;
8048;SDS011;20935;42.660;23.342;2023-02-12T12:30:27;28.93;;;20.67;;
8048;SDS011;20935;42.660;23.342;2023-02-12T12:33:37;26.60;;;18.83;;
8048;SDS011;20935;42.660;23.342;2023-02-12T12:39:49;24.13;;;17.43;;
8048;SDS011;20935;42.660;23.342;2023-02-12T12:43:00;25.43;;;18.43;;
8048;SDS011;20935;42.660;23.342;2023-02-12T12:45:59;25.67;;;16.90;;
8048;SDS011;20935;42.660;23.342;2023-02-12T12:49:05;29.27;;;18.80;;
8048;SDS011;20935;42.660;23.342;2023-02-12T12:52:10;28.37;;;19.33;;
8048;SDS011;20935;42.660;23.342;2023-02-12T12:58:32;25.40;;;18.33;;
8048;SDS011;20935;42.660;23.342;2023-02-12T13:01:31;27.57;;;18.33;;
8048;SDS011;20935;42.660;23.342;2023-02-12T13:04:31;29.97;;;18.70;;
8048;SDS011;20935;42.660;23.342;2023-02-12T13:07:32;28.20;;;20.13;;
8048;SDS011;20935;42.660;23.342;2023-02-12T13:10:31;29.43;;;20.40;;
8048;SDS011;20935;42.660;23.342;2023-02-12T13:13:23;27.70;;;18.97;;
8048;SDS011;20935;42.660;23.342;2023-02-12T13:16:16;27.80;;;18.63;;
8048;SDS011;20935;42.660;23.342;2023-02-12T13:19:08;23.43;;;18.40;;
8048;SDS011;20935;42.660;23.342;2023-02-12T13:22:03;28.83;;;18.77;;
8048;SDS011;20935;42.660;23.342;2023-02-12T13:24:57;27.87;;;19.57;;
8048;SDS011;20935;42.660;23.342;2023-02-12T13:27:49;26.40;;;19.33;;
8048;SDS011;20935;42.660;23.342;2023-02-12T13:30:37;28.07;;;19.93;;
8048;SDS011;20935;42.660;23.342;2023-02-12T13:33:27;26.77;;;19.43;;
8048;SDS011;20935;42.660;23.342;2023-02-12T13:36:23;25.77;;;19.00;;
8048;SDS011;20935;42.660;23.342;2023-02-12T13:39:11;27.20;;;20.83;;
8048;SDS011;20935;42.660;23.342;2023-02-12T13:42:10;29.57;;;20.60;;
8048;SDS011;20935;42.660;23.342;2023-02-12T13:45:07;33.13;;;21.40;;
8048;SDS011;20935;42.660;23.342;2023-02-12T13:48:11;27.70;;;20.07;;
8048;SDS011;20935;42.660;23.342;2023-02-12T13:51:14;32.47;;;19.13;;
8048;SDS011;20935;42.660;23.342;2023-02-12T13:54:17;30.30;;;19.73;;
8048;SDS011;20935;42.660;23.342;2023-02-12T13:57:13;31.50;;;21.23;;
8048;SDS011;20935;42.660;23.342;2023-02-12T14:00:01;30.63;;;20.30;;
8048;SDS011;20935;42.660;23.342;2023-02-12T14:02:50;30.33;;;21.67;;
8048;SDS011;20935;42.660;23.342;2023-02-12T14:05:36;33.23;;;21.03;;
8048;SDS011;20935;42.660;23.342;2023-02-12T14:08:26;36.10;;;22.23;;
8048;SDS011;20935;42.660;23.342;2023-02-12T14:11:19;28.87;;;19.53;;
8048;SDS011;20935;42.660;23.342;2023-02-12T14:14:08;28.40;;;19.37;;
8048;SDS011;20935;42.660;23.342;2023-02-12T14:16:53;30.27;;;21.90;;
8048;SDS011;20935;42.660;23.342;2023-02-12T14:19:53;30.03;;;20.87;;
8048;SDS011;20935;42.660;23.342;2023-02-12T14:22:59;29.10;;;19.80;;
8048;SDS011;20935;42.660;23.342;2023-02-12T14:26:01;30.10;;;20.20;;
8048;SDS011;20935;42.660;23.342;2023-02-12T14:28:51;31.30;;;19.90;;
8048;SDS011;20935;42.660;23.342;2023-02-12T14:31:39;28.27;;;19.70;;
8048;SDS011;20935;42.660;23.342;2023-02-12T14:37:35;29.47;;;21.20;;
8048;SDS011;20935;42.660;23.342;2023-02-12T14:40:37;30.20;;;20.63;;
8048;SDS011;20935;42.660;23.342;2023-02-12T14:43:27;29.80;;;19.77;;
8048;SDS011;20935;42.660;23.342;2023-02-12T14:46:47;26.63;;;17.33;;
8048;SDS011;20935;42.660;23.342;2023-02-12T14:49:37;27.90;;;18.97;;
8048;SDS011;20935;42.660;23.342;2023-02-12T14:52:25;25.83;;;19.40;;
8048;SDS011;20935;42.660;23.342;2023-02-12T14:55:18;26.77;;;20.87;;
8048;SDS011;20935;42.660;23.342;2023-02-12T14:58:13;31.90;;;21.20;;
8048;SDS011;20935;42.660;23.342;2023-02-12T15:01:02;32.03;;;22.13;;
8048;SDS011;20935;42.660;23.342;2023-02-12T15:03:51;27.83;;;19.20;;
8048;SDS011;20935;42.660;23.342;2023-02-12T15:06:40;34.83;;;22.10;;
8048;SDS011;20935;42.660;23.342;2023-02-12T15:09:33;30.03;;;22.33;;
8048;SDS011;20935;42.660;23.342;2023-02-12T15:12:25;32.70;;;22.53;;
8048;SDS011;20935;42.660;23.342;2023-02-12T15:15:17;30.33;;;19.50;;
8048;SDS011;20935;42.660;23.342;2023-02-12T15:18:10;31.70;;;23.27;;
8048;SDS011;20935;42.660;23.342;2023-02-12T15:21:04;34.53;;;24.13;;
8048;SDS011;20935;42.660;23.342;2023-02-12T15:23:59;29.80;;;21.73;;
8048;SDS011;20935;42.660;23.342;2023-02-12T15:26:47;33.73;;;22.97;;
8048;SDS011;20935;42.660;23.342;2023-02-12T15:29:35;34.87;;;23.83;;
8048;SDS011;20935;42.660;23.342;2023-02-12T15:32:26;33.57;;;24.63;;
8048;SDS011;20935;42.660;23.342;2023-02-12T15:35:21;37.03;;;25.47;;
8048;SDS011;20935;42.660;23.342;2023-02-12T15:38:15;36.00;;;24.73;;
8048;SDS011;20935;42.660;23.342;2023-02-12T15:41:04;36.80;;;23.67;;
8048;SDS011;20935;42.660;23.342;2023-02-12T15:43:51;32.67;;;23.17;;
8048;SDS011;20935;42.660;23.342;2023-02-12T15:46:37;39.47;;;26.57;;
8048;SDS011;20935;42.660;23.342;2023-02-12T15:49:27;38.17;;;24.10;;
8048;SDS011;20935;42.660;23.342;2023-02-12T15:52:15;38.40;;;25.13;;
8048;SDS011;20935;42.660;23.342;2023-02-12T15:55:13;35.87;;;24.50;;
8048;SDS011;20935;42.660;23.342;2023-02-12T15:58:01;36.97;;;27.13;;
8048;SDS011;20935;42.660;23.342;2023-02-12T16:00:46;41.13;;;27.10;;
8048;SDS011;20935;42.660;23.342;2023-02-12T16:03:32;36.97;;;25.03;;
8048;SDS011;20935;42.660;23.342;2023-02-12T16:06:20;40.57;;;26.73;;
8048;SDS011;20935;42.660;23.342;2023-02-12T16:09:08;42.20;;;26.37;;
8048;SDS011;20935;42.660;23.342;2023-02-12T16:12:02;36.97;;;25.03;;
8048;SDS011;20935;42.660;23.342;2023-02-12T16:14:53;38.23;;;26.07;;
8048;SDS011;20935;42.660;23.342;2023-02-12T16:17:45;38.50;;;26.27;;
8048;SDS011;20935;42.660;23.342;2023-02-12T16:20:31;39.80;;;25.73;;
8048;SDS011;20935;42.660;23.342;2023-02-12T16:23:17;40.57;;;27.07;;
8048;SDS011;20935;42.660;23.342;2023-02-12T16:26:06;40.57;;;27.70;;
8048;SDS011;20935;42.660;23.342;2023-02-12T16:28:53;38.63;;;26.67;;
8048;SDS011;20935;42.660;23.342;2023-02-12T16:31:41;38.93;;;26.33;;
8048;SDS011;20935;42.660;23.342;2023-02-12T16:34:39;38.73;;;26.00;;
8048;SDS011;20935;42.660;23.342;2023-02-12T16:37:39;37.90;;;26.77;;
8048;SDS011;20935;42.660;23.342;2023-02-12T16:40:31;37.93;;;27.27;;
8048;SDS011;20935;42.660;23.342;2023-02-12T16:43:22;40.90;;;27.83;;
8048;SDS011;20935;42.660;23.342;2023-02-12T16:46:11;43.40;;;28.30;;
8048;SDS011;20935;42.660;23.342;2023-02-12T16:48:57;43.53;;;29.57;;
8048;SDS011;20935;42.660;23.342;2023-02-12T16:51:45;40.03;;;27.30;;
8048;SDS011;20935;42.660;23.342;2023-02-12T16:54:32;45.33;;;29.63;;
8048;SDS011;20935;42.660;23.342;2023-02-12T16:57:19;43.37;;;27.70;;